createdAt,value
2022-08-16T00:00:38.561Z,18.25
2022-08-16T00:03:42.294Z,22.50
2022-08-16T00:06:45.847Z,21.00
2022-08-16T00:09:50.936Z,19.60
2022-08-16T00:12:56.032Z,18.00
2022-08-16T00:15:59.319Z,20.20
2022-08-16T00:19:04.351Z,21.00
2022-08-16T00:22:13.419Z,21.00
2022-08-16T00:26:33.742Z,19.00
2022-08-16T00:28:46.731Z,19.80
2022-08-16T00:32:01.114Z,21.00
2022-08-16T00:35:15.099Z,19.00
2022-08-16T00:38:41.069Z,21.00
2022-08-16T00:41:45.626Z,19.75
2022-08-16T00:44:56.559Z,19.00
2022-08-16T00:48:00.839Z,20.00
2022-08-16T00:51:05.464Z,20.00
2022-08-16T00:54:11.713Z,22.00
2022-08-16T00:57:16.647Z,19.00
2022-08-16T01:00:23.918Z,19.40
2022-08-16T01:03:31.565Z,18.00
2022-08-16T01:06:48.775Z,18.00
2022-08-16T01:09:53.491Z,19.00
2022-08-16T01:13:00.321Z,18.25
2022-08-16T01:16:10.294Z,20.00
2022-08-16T01:19:23.186Z,20.50
2022-08-16T01:22:58.895Z,23.00
2022-08-16T01:26:00.094Z,19.60
2022-08-16T01:29:58.514Z,22.00
2022-08-16T01:33:14.153Z,19.00
2022-08-16T01:36:16.978Z,20.60
2022-08-16T01:39:21.785Z,19.00
2022-08-16T01:42:28.168Z,20.00
2022-08-16T01:45:40.538Z,19.00
2022-08-16T01:48:48.680Z,21.80
2022-08-16T01:51:56.863Z,16.60
2022-08-16T01:55:11.471Z,21.00
2022-08-16T01:58:20.934Z,20.00
2022-08-16T02:01:26.204Z,19.00
2022-08-16T02:04:48.835Z,17.60
2022-08-16T02:07:54.496Z,17.20
2022-08-16T02:10:59.098Z,19.50
2022-08-16T02:14:05.475Z,20.00
2022-08-16T02:17:21.699Z,18.00
2022-08-16T02:20:28.328Z,18.00
2022-08-16T02:23:31.834Z,19.20
2022-08-16T02:26:35.419Z,20.00
2022-08-16T02:29:41.256Z,21.00
2022-08-16T02:33:02.442Z,20.00
2022-08-16T02:36:07.432Z,20.60
2022-08-16T02:39:19.450Z,20.20
2022-08-16T02:42:27.632Z,24.40
2022-08-16T02:45:33.281Z,19.00
2022-08-16T02:48:38.682Z,20.00
2022-08-16T02:51:43.957Z,22.00
2022-08-16T02:54:47.621Z,19.00
2022-08-16T02:57:59.750Z,18.33
2022-08-16T03:01:05.703Z,18.75
2022-08-16T03:04:40.022Z,19.40
2022-08-16T03:07:37.317Z,22.00
2022-08-16T03:10:42.046Z,22.00
2022-08-16T03:13:56.393Z,21.25
2022-08-16T03:17:02.082Z,20.00
2022-08-16T03:20:18.309Z,17.40
2022-08-16T03:23:23.067Z,25.75
2022-08-16T03:26:26.627Z,24.00
2022-08-16T03:29:32.128Z,12.00
2022-08-16T03:32:38.763Z,22.20
2022-08-16T03:35:44.610Z,25.00
2022-08-16T03:38:55.099Z,21.00
2022-08-16T03:42:00.412Z,21.80
2022-08-16T03:45:07.404Z,24.00
2022-08-16T03:48:18.325Z,36.40
2022-08-16T03:51:25.473Z,35.60
2022-08-16T03:54:35.978Z,32.40
2022-08-16T03:57:40.778Z,33.00
2022-08-16T04:00:47.038Z,30.00
2022-08-16T04:04:03.696Z,36.00
2022-08-16T04:07:08.822Z,37.75
2022-08-16T04:10:37.239Z,32.75
2022-08-16T04:14:00.960Z,35.50
2022-08-16T04:17:07.581Z,38.50
2022-08-16T04:20:29.475Z,33.00
2022-08-16T04:23:39.823Z,33.00
2022-08-16T04:26:46.441Z,30.20
2022-08-16T04:29:52.378Z,29.40
2022-08-16T04:32:57.269Z,29.20
2022-08-16T04:36:07.083Z,37.60
2022-08-16T04:39:10.839Z,39.00
2022-08-16T04:42:26.231Z,39.00
2022-08-16T04:45:35.825Z,37.00
2022-08-16T04:48:44.189Z,32.00
2022-08-16T04:51:53.662Z,31.00
2022-08-16T04:54:58.889Z,32.00
2022-08-16T04:58:04.021Z,32.20
2022-08-16T05:01:58.004Z,33.00
2022-08-16T05:04:52.249Z,38.00
2022-08-16T05:08:00.250Z,33.00
2022-08-16T05:11:10.198Z,38.00
2022-08-16T05:14:20.381Z,39.40
2022-08-16T05:17:38.083Z,40.00
2022-08-16T05:21:01.483Z,32.60
2022-08-16T05:24:11.098Z,36.00
2022-08-16T05:27:15.682Z,34.00
2022-08-16T05:30:34.971Z,33.00
2022-08-16T05:33:42.268Z,37.00
2022-08-16T05:36:46.800Z,30.00
2022-08-16T05:39:56.087Z,32.60
2022-08-16T05:42:59.837Z,26.20
2022-08-16T05:46:14.497Z,16.20
2022-08-16T05:49:50.870Z,27.00
2022-08-16T05:52:54.909Z,28.60
2022-08-16T05:55:59.955Z,23.00
2022-08-16T05:59:03.254Z,22.20
2022-08-16T06:02:10.513Z,18.00
2022-08-16T06:05:36.153Z,11.00
2022-08-16T06:08:44.899Z,19.25
2022-08-16T06:11:54.098Z,18.00
2022-08-16T06:15:00.027Z,23.80
2022-08-16T06:18:04.557Z,21.00
2022-08-16T06:21:08.465Z,22.20
2022-08-16T06:24:54.007Z,20.00
2022-08-16T06:27:41.034Z,21.75
2022-08-16T06:30:45.287Z,21.00
2022-08-16T06:33:51.853Z,26.60
2022-08-16T06:36:59.339Z,23.00
2022-08-16T06:40:05.242Z,13.00
2022-08-16T06:43:27.278Z,21.00
2022-08-16T06:46:39.488Z,18.00
2022-08-16T06:49:54.078Z,16.20
2022-08-16T06:53:06.742Z,19.00
2022-08-16T06:56:52.434Z,20.00
2022-08-16T07:00:00.173Z,17.60
2022-08-16T07:03:26.746Z,16.00
2022-08-16T07:06:31.990Z,20.00
2022-08-16T07:09:40.640Z,16.33
2022-08-16T07:12:47.461Z,18.20
2022-08-16T07:16:15.496Z,19.00
2022-08-16T07:19:21.393Z,17.75
2022-08-16T07:22:38.718Z,13.20
2022-08-16T07:25:51.173Z,16.40
2022-08-16T07:28:56.733Z,18.00
2022-08-16T07:32:01.775Z,17.00
2022-08-16T07:35:07.830Z,14.75
2022-08-16T07:38:12.097Z,19.00
2022-08-16T07:41:22.954Z,16.40
2022-08-16T07:44:37.558Z,18.00
2022-08-16T07:47:55.632Z,20.00
2022-08-16T07:51:01.694Z,17.00
2022-08-16T07:54:20.818Z,19.80
2022-08-16T07:57:28.323Z,20.00
2022-08-16T08:00:31.947Z,18.60
2022-08-16T08:03:39.170Z,18.40
2022-08-16T08:06:51.140Z,16.00
2022-08-16T08:09:55.419Z,16.00
2022-08-16T08:13:00.032Z,14.60
2022-08-16T08:16:05.228Z,15.60
2022-08-16T08:19:12.926Z,18.00
2022-08-16T08:22:21.979Z,18.00
2022-08-16T08:25:54.514Z,16.00
2022-08-16T08:29:01.102Z,16.00
2022-08-16T08:32:51.145Z,19.00
2022-08-16T08:35:32.417Z,19.00
2022-08-16T08:38:43.961Z,20.20
2022-08-16T08:41:52.457Z,16.80
2022-08-16T08:44:57.895Z,16.25
2022-08-16T08:48:01.226Z,17.80
2022-08-16T08:51:11.118Z,14.75
2022-08-16T08:54:27.331Z,15.25
2022-08-16T08:57:32.549Z,16.60
2022-08-16T09:00:55.067Z,17.00
2022-08-16T09:04:06.546Z,16.75
2022-08-16T09:07:12.440Z,18.25
2022-08-16T09:10:20.263Z,13.00
2022-08-16T09:13:25.412Z,18.00
2022-08-16T09:17:02.292Z,14.20
2022-08-16T09:19:57.172Z,16.00
2022-08-16T09:23:03.565Z,14.60
2022-08-16T09:26:45.995Z,12.80
2022-08-16T09:29:45.217Z,11.00
2022-08-16T09:32:54.883Z,13.50
2022-08-16T09:35:58.247Z,14.00
2022-08-16T09:39:04.511Z,14.00
2022-08-16T09:42:07.932Z,16.00
2022-08-16T09:45:18.202Z,14.00
2022-08-16T09:48:43.929Z,13.00
2022-08-16T09:51:45.297Z,14.25
2022-08-16T09:54:50.012Z,12.80
2022-08-16T09:57:53.989Z,14.80
2022-08-16T10:00:57.930Z,13.00
2022-08-16T10:04:14.271Z,15.40
2022-08-16T10:07:48.966Z,13.00
2022-08-16T10:11:13.199Z,15.00
2022-08-16T10:14:16.416Z,14.60
2022-08-16T10:17:24.890Z,15.40
2022-08-16T10:20:28.982Z,14.00
2022-08-16T10:23:32.339Z,13.00
2022-08-16T10:27:19.702Z,15.00
2022-08-16T10:30:06.640Z,15.40
2022-08-16T10:33:27.282Z,15.00
2022-08-16T10:36:38.771Z,14.00
2022-08-16T10:39:43.100Z,16.00
2022-08-16T10:42:50.270Z,14.00
2022-08-16T10:46:00.130Z,14.00
2022-08-16T10:49:05.248Z,13.40
2022-08-16T10:52:19.015Z,19.00
2022-08-16T10:55:41.033Z,16.00
2022-08-16T10:58:48.525Z,15.60
2022-08-16T11:05:18.113Z,17.00
2022-08-16T11:08:35.191Z,14.00
2022-08-16T11:12:07.739Z,15.00
2022-08-16T11:15:13.403Z,16.60
2022-08-16T11:19:03.840Z,15.20
2022-08-16T11:25:15.193Z,16.20
2022-08-16T11:29:12.637Z,19.00
2022-08-16T11:31:59.381Z,16.20
2022-08-16T11:35:10.855Z,16.00
2022-08-16T11:38:47.089Z,18.00
2022-08-16T11:41:46.509Z,15.00
2022-08-16T11:44:57.022Z,16.00
2022-08-16T11:48:02.193Z,16.75
2022-08-16T11:51:06.766Z,15.40
2022-08-16T11:54:20.096Z,16.40
2022-08-16T11:57:25.189Z,17.00
2022-08-16T12:00:50.098Z,16.00
2022-08-16T12:03:57.048Z,14.40
2022-08-16T12:07:00.862Z,17.40
2022-08-16T12:10:07.144Z,15.20
2022-08-16T12:13:11.858Z,17.00
2022-08-16T12:16:17.419Z,16.80
2022-08-16T12:19:35.223Z,14.20
2022-08-16T12:22:39.789Z,16.80
2022-08-16T12:25:46.062Z,15.60
2022-08-16T12:28:56.143Z,17.40
2022-08-16T12:32:26.746Z,15.00
2022-08-16T12:35:28.376Z,16.00
2022-08-16T12:38:41.426Z,17.00
2022-08-16T12:41:53.031Z,14.00
2022-08-16T12:44:56.450Z,17.60
2022-08-16T12:48:35.041Z,14.60
2022-08-16T12:51:57.977Z,12.80
2022-08-16T12:55:03.610Z,13.75
2022-08-16T12:58:14.048Z,14.00
2022-08-16T13:01:34.137Z,14.20
2022-08-16T13:04:37.841Z,15.00
2022-08-16T13:07:51.337Z,14.00
2022-08-16T13:10:56.197Z,15.60
2022-08-16T13:13:59.680Z,14.40
2022-08-16T13:17:06.443Z,14.00
2022-08-16T13:20:12.993Z,18.00
2022-08-16T13:23:19.091Z,17.00
2022-08-16T13:26:22.997Z,19.00
2022-08-16T13:29:27.325Z,17.50
2022-08-16T13:32:43.901Z,17.00
2022-08-16T13:35:56.121Z,17.00
2022-08-16T13:39:07.164Z,17.00
2022-08-16T13:42:12.088Z,16.25
2022-08-16T13:45:17.949Z,17.00
2022-08-16T13:48:25.015Z,19.40
2022-08-16T13:51:30.768Z,16.00
2022-08-16T13:54:36.305Z,15.50
2022-08-16T13:58:34.342Z,17.60
2022-08-16T14:01:03.413Z,19.40
2022-08-16T14:04:06.988Z,16.00
2022-08-16T14:07:13.294Z,17.60
2022-08-16T14:10:24.907Z,16.80
2022-08-16T14:13:28.272Z,17.00
2022-08-16T14:16:34.002Z,15.00
2022-08-16T14:19:45.059Z,15.75
2022-08-16T14:22:52.563Z,16.60
2022-08-16T14:25:59.919Z,20.50
2022-08-16T14:29:03.659Z,17.40
2022-08-16T14:32:09.277Z,15.75
2022-08-16T14:35:20.944Z,16.80
2022-08-16T14:38:24.423Z,17.00
2022-08-16T14:41:34.472Z,16.40
2022-08-16T14:44:38.369Z,16.00
2022-08-16T14:47:42.642Z,17.40
2022-08-16T14:50:46.031Z,18.00
2022-08-16T14:53:52.820Z,16.00
2022-08-16T14:56:57.951Z,19.00
2022-08-16T15:00:06.151Z,19.00
2022-08-16T15:03:11.759Z,18.60
2022-08-16T15:06:16.459Z,16.00
2022-08-16T15:09:20.108Z,16.80
2022-08-16T15:12:33.621Z,17.40
2022-08-16T15:15:39.544Z,17.60
2022-08-16T15:18:42.895Z,17.00
2022-08-16T15:21:53.775Z,16.60
2022-08-16T15:24:59.907Z,17.40
2022-08-16T15:28:23.958Z,17.75
2022-08-16T15:31:31.566Z,20.00
2022-08-16T15:34:34.840Z,14.80
2022-08-16T15:37:42.185Z,15.40
2022-08-16T15:40:57.584Z,16.75
2022-08-16T15:44:10.709Z,17.40
2022-08-16T15:47:16.673Z,17.60
2022-08-16T15:50:23.466Z,16.40
2022-08-16T15:53:30.909Z,18.00
2022-08-16T15:56:35.551Z,17.00
2022-08-16T15:59:49.457Z,18.40
2022-08-16T16:03:08.543Z,19.00
2022-08-16T16:06:12.317Z,20.00
2022-08-16T16:09:17.855Z,17.00
2022-08-16T16:12:53.460Z,17.20
2022-08-16T16:15:56.624Z,16.00
2022-08-16T16:19:01.629Z,15.00
2022-08-16T16:22:06.501Z,17.25
2022-08-16T16:25:10.659Z,18.40
2022-08-16T16:29:06.538Z,16.60
2022-08-16T16:31:43.987Z,17.00
2022-08-16T16:35:02.996Z,16.00
2022-08-16T16:38:08.065Z,17.40
2022-08-16T16:41:12.704Z,18.00
2022-08-16T16:44:18.295Z,18.00
2022-08-16T16:47:41.510Z,16.50
2022-08-16T16:50:45.373Z,19.50
2022-08-16T16:53:55.751Z,19.00
2022-08-16T16:57:00.331Z,19.50
2022-08-16T17:00:30.327Z,15.00
2022-08-16T17:03:31.366Z,16.80
2022-08-16T17:06:37.528Z,18.40
2022-08-16T17:09:41.664Z,18.20
2022-08-16T17:12:47.274Z,21.40
2022-08-16T17:15:52.172Z,18.00
2022-08-16T17:19:17.487Z,17.00
2022-08-16T17:22:23.633Z,18.00
2022-08-16T17:25:38.870Z,16.75
2022-08-16T17:28:59.536Z,20.00
2022-08-16T17:32:33.816Z,18.40
2022-08-16T17:35:39.404Z,19.00
2022-08-16T17:38:44.594Z,19.00
2022-08-16T17:41:49.465Z,19.00
2022-08-16T17:44:54.491Z,21.00
2022-08-16T17:47:58.427Z,21.00
2022-08-16T17:51:03.923Z,17.00
2022-08-16T17:54:07.741Z,20.00
2022-08-16T17:57:21.913Z,16.60
2022-08-16T18:00:26.977Z,20.00
2022-08-16T18:04:02.441Z,19.00
2022-08-16T18:07:00.397Z,19.00
2022-08-16T18:10:03.621Z,18.50
2022-08-16T18:13:10.877Z,18.20
2022-08-16T18:16:16.173Z,17.00
2022-08-16T18:19:19.427Z,16.60
2022-08-16T18:22:29.819Z,18.50
2022-08-16T18:25:33.979Z,20.40
2022-08-16T18:28:38.952Z,21.00
2022-08-16T18:31:42.352Z,20.60
2022-08-16T18:34:45.973Z,21.00
2022-08-16T18:37:51.503Z,29.00
2022-08-16T18:40:54.947Z,25.00
2022-08-16T18:44:25.115Z,24.00
2022-08-16T18:47:21.601Z,19.00
2022-08-16T18:50:25.221Z,19.50
2022-08-16T18:53:29.969Z,19.00
2022-08-16T18:56:55.849Z,19.00
2022-08-16T18:59:56.553Z,19.00
2022-08-16T19:03:05.528Z,19.00
2022-08-16T19:06:13.872Z,17.20
2022-08-16T19:09:18.961Z,17.00
2022-08-16T19:12:38.123Z,16.80
2022-08-16T19:15:47.938Z,16.20
2022-08-16T19:18:51.702Z,19.00
2022-08-16T19:21:54.999Z,18.60
2022-08-16T19:25:00.218Z,17.00
2022-08-16T19:28:04.812Z,20.00
2022-08-16T19:31:15.763Z,16.60
2022-08-16T19:34:19.057Z,17.75
2022-08-16T19:37:22.920Z,18.00
2022-08-16T19:40:37.057Z,16.00
2022-08-16T19:43:40.640Z,17.00
2022-08-16T19:46:46.595Z,18.00
2022-08-16T19:49:50.824Z,20.60
2022-08-16T19:53:01.779Z,13.50
2022-08-16T19:56:25.918Z,21.40
2022-08-16T19:59:40.445Z,16.60
2022-08-16T20:02:49.963Z,21.80
2022-08-16T20:05:53.857Z,23.00
2022-08-16T20:08:57.257Z,22.00
2022-08-16T20:12:06.674Z,21.00
2022-08-16T20:15:12.612Z,23.60
2022-08-16T20:18:25.127Z,25.80
2022-08-16T20:21:29.239Z,24.00
2022-08-16T20:24:35.563Z,23.00
2022-08-16T20:27:42.472Z,23.00
2022-08-16T20:30:45.752Z,26.20
2022-08-16T20:33:49.171Z,26.60
2022-08-16T20:36:52.445Z,26.40
2022-08-16T20:40:18.059Z,22.00
2022-08-16T20:43:21.687Z,23.00
2022-08-16T20:46:25.219Z,22.00
2022-08-16T20:49:29.160Z,21.00
2022-08-16T20:52:32.415Z,20.80
2022-08-16T20:55:37.222Z,21.80
2022-08-16T20:58:41.893Z,26.00
2022-08-16T21:01:47.027Z,27.00
2022-08-16T21:04:53.940Z,26.60
2022-08-16T21:07:57.195Z,23.00
2022-08-16T21:11:03.339Z,20.60
2022-08-16T21:14:11.734Z,24.40
2022-08-16T21:17:16.164Z,25.00
2022-08-16T21:20:19.661Z,26.00
2022-08-16T21:23:23.408Z,24.00
2022-08-16T21:26:27.537Z,24.60
2022-08-16T21:29:39.814Z,27.40
2022-08-16T21:32:47.019Z,23.40
2022-08-16T21:35:53.939Z,23.75
2022-08-16T21:38:57.408Z,24.00
2022-08-16T21:42:01.099Z,23.00
2022-08-16T21:45:07.223Z,21.00
2022-08-16T21:48:11.026Z,24.00
2022-08-16T21:51:17.018Z,27.60
2022-08-16T21:54:20.385Z,24.00
2022-08-16T21:57:23.644Z,23.00
2022-08-16T22:00:28.790Z,25.40
2022-08-16T22:03:33.108Z,26.00
2022-08-16T22:06:36.824Z,27.00
2022-08-16T22:09:40.588Z,25.20
2022-08-16T22:12:43.877Z,22.20
2022-08-16T22:15:50.435Z,23.00
2022-08-16T22:18:53.693Z,24.25
2022-08-16T22:21:57.250Z,27.00
2022-08-16T22:25:01.305Z,26.25
2022-08-16T22:28:05.651Z,25.60
2022-08-16T22:31:10.344Z,28.00
2022-08-16T22:34:15.168Z,28.40
2022-08-16T22:37:18.497Z,24.00
2022-08-16T22:40:22.328Z,27.60
2022-08-16T22:43:27.030Z,26.50
2022-08-16T22:46:33.684Z,23.60
2022-08-16T22:49:36.890Z,28.25
2022-08-16T22:52:56.254Z,27.40
2022-08-16T22:56:00.439Z,27.50
2022-08-16T22:59:03.758Z,30.00
2022-08-16T23:02:09.916Z,28.75
2022-08-16T23:05:13.280Z,32.40
2022-08-16T23:08:38.505Z,30.00
2022-08-16T23:11:42.271Z,30.00
2022-08-16T23:14:45.547Z,25.25
2022-08-16T23:17:50.434Z,28.00
2022-08-16T23:20:55.728Z,28.60
2022-08-16T23:23:59.028Z,27.00
2022-08-16T23:27:02.529Z,25.00
2022-08-16T23:30:07.118Z,24.00
2022-08-16T23:33:15.349Z,25.20
2022-08-16T23:36:19.261Z,27.00
2022-08-16T23:39:22.789Z,28.00
2022-08-16T23:42:52.545Z,28.00
2022-08-16T23:45:51.989Z,30.00
2022-08-16T23:49:55.846Z,27.60
2022-08-16T23:52:53.443Z,26.00
2022-08-16T23:55:46.506Z,30.00
2022-08-16T23:59:02.101Z,26.20
